x

Cape Cleare - 17 Nm South Of Montague Is, Ak (46076) Wave Buoy

5:50pm - Sun 23rd Nov 2014 All times are AKST. -9 hours from GMT.

  • Sig Wave height 6.6ft
  • Peak Period 9s
  • Average Period 6s
  • Wind
    13mph, 18mph gusts
  • Sea Temp 49°f
  • Air Temp 44°f
  • Sea Pressure 998mb
  • Cape Cleare - 17 Nm South Of Montague Is,  Ak
  • Cape Cleare - 17 Nm South Of Montague Is,  Ak

More Historic Weather Station data

Upgrade to MSW Pro to gain access to the past 30 days of data for over 8000 Wavebouys and Weather Stations around the globe.

Join Pro

Comparision Forecast

View Surf forecast
   
Sun 11/23 5:50pm 6.5ft 9s 6s 13 18 mph 998mb 49f 44f
4:50pm  -   -   -  9 11 mph 997.4mb 49f 44f
2:50pm  -   -   -  11
mph
996.5mb - 45f
1:50pm  -   -   -  13 16 mph 996.2mb 49f 46f
12:50pm 6ft 10s 6s 4 9 mph 996.1mb 49f 44f
11:50am 5ft 11s 6s 11 16 mph 995.9mb 49f 44f
10:50am  -   -   -  18 22 mph 995.3mb 49f 44f
9:50am 7ft 10s 6s 16 18 mph 994.8mb 49f 45f
8:50am  -   -   -  13 18 mph 994.5mb 49f 45f
7:50am 6ft 10s 6s 13 18 mph 994.2mb 49f 45f
6:50am  -   -   -  13 16 mph 993.7mb 48f 45f
5:50am 5ft 10s 6s 13 18 mph 993.4mb 48f 46f
4:50am  -   -   -  9 13 mph 993.1mb 48f 45f
3:50am 6ft 11s 6s 9 16 mph 992.8mb 49f 45f
2:50am 6ft 10s 6s 4 9 mph 992.5mb 49f 44f
1:50am  -   -   -  2 4 mph 992.2mb 49f 44f
12:50am 7ft 11s 6s 9 11 mph 991.7mb 49f 44f
Sat 11/22 11:50pm 8ft 9s 6s 11 18 mph 991mb 49f 45f
10:50pm 7.5ft 10s 6s 16 18 mph 990.3mb 49f 46f
9:50pm 7.5ft 11s 6s 9 11 mph 989.8mb 49f 44f
8:50pm 7ft 11s 6s 18 22 mph 989.1mb 49f 43f
7:50pm 7ft 11s 6s 16 22 mph 988.3mb 48f 44f
6:50pm 8ft 10s 7s 11 16 mph 987.8mb 48f 44f
5:50pm 8ft 12s 7s 11 13 mph 987.2mb 48f 45f
4:50pm  -   -   -  9 11 mph 986.5mb 48f 44f
3:50pm  -   -   -  13 18 mph 985.8mb 48f 44f
2:50pm  -   -   -  20 22 mph 984.8mb 48f 44f
1:50pm  -   -   -  18 25 mph 983.9mb 48f 44f
1:00pm  -   -   -  18
mph
- - -
11:50am 9.5ft 12s 7s 13 18 mph 981.9mb 49f 44f
10:50am 10ft 10s 7s 16 18 mph 981.3mb 49f 44f
9:50am 9ft 11s 6s 22 29 mph 980.8mb 49f 43f
8:50am 9ft 11s 7s 25 29 mph 981.3mb 49f 42f
6:50am  -   -   -  20 25 mph 981.7mb 49f 44f
5:50am 9ft 11s 7s 18 22 mph 981.7mb 49f 45f
4:50am 9ft 11s 7s 9 13 mph 982.2mb 49f 43f
3:50am  -   -   -  16
mph
982.1mb 49f 44f
2:50am  -   -   -  11 18 mph 982.1mb 49f 42f
1:50am 9.5ft 12s 7s 13 16 mph 981.6mb 49f 46f
12:50am 11ft 12s 8s 11 16 mph 981.3mb 49f 45f
Fri 11/21 11:50pm 11ft 12s 8s 13 20 mph 980.7mb 49f 43f
10:50pm 11ft 9s 7s 4 7 mph 980.2mb 49f 42f
9:50pm 11.5ft 13s 8s 13 16 mph 979.4mb 49f 43f
8:50pm 11ft 11s 7s 25 29 mph 978.6mb 49f 44f
7:50pm  -   -   -  13 16 mph 978.3mb 49f 44f
5:50pm 12ft 11s 7s 16 18 mph 977.4mb 49f 45f
4:50pm  -   -   -  16 18 mph 976.9mb 49f 46f
3:50pm  -   -   -  13 18 mph 976.5mb 49f 46f
2:50pm  -   -   -  13 16 mph 976.2mb 49f 46f
1:50pm  -   -   -  9
mph
- - 44f
12:50pm  -   -   -  16 18 mph 975.9mb 49f 45f
11:50am 15ft 11s 7s 27 31 mph 975.4mb 49f 46f
10:50am  -   -   -  29
mph
- - 46f
9:50am  -   -   -  31 38 mph 976.2mb 49f 46f
8:50am  -   -   -  31 38 mph 976.8mb 49f 45f
7:50am 15ft 12s 7s 31 38 mph 977.1mb 49f 46f
6:50am  -   -   -  29 36 mph 978.1mb 49f 46f
5:50am 16.5ft 11s 8s 27 31 mph 978.7mb 49f 46f
4:50am  -   -   -  27
mph
979.4mb 49f 47f
3:50am 16.5ft 12s 8s 25 29 mph 980.2mb 49f 47f
2:50am 17.5ft 12s 8s 25 31 mph 981mb 49f 47f
1:50am  -   -   -  27
mph
- - -
Thu 11/20 11:50pm 16.5ft 13s 8s 29 36 mph 983.4mb 49f 47f
10:50pm 15ft 11s 7s 29 36 mph 984.2mb 49f 47f
9:50pm 15ft 11s 7s 29 36 mph 985.2mb 49f 47f
8:50pm 14ft 10s 7s 29 34 mph 985.9mb 49f 46f
7:50pm 14ft 11s 7s 29 36 mph 986.7mb 49f 46f
6:50pm  -   -   -  29 38 mph 987.6mb 49f 46f
5:50pm  -   -   -  31 38 mph 988.1mb 49f 47f
4:50pm 13ft 9s 6s 31 38 mph 988.8mb 49f 46f
3:50pm 11.5ft 9s 6s 31 38 mph 989.3mb 49f 47f
2:50pm  -   -   -  31
mph
990mb - 47f
1:50pm  -   -   -  31 38 mph 990.7mb 48f 47f
12:50pm  -   -   -  31 38 mph 991.2mb 48f 47f
11:50am  -   -   -  29 36 mph 992.4mb 49f 47f
10:50am  -   -   -  27 34 mph 993.1mb 49f 48f
9:50am 10ft 7s 5s 34 40 mph 993.5mb 49f 48f
8:50am  -   -   -  31 36 mph 993.8mb 49f 48f
7:50am  -   -   -  29 34 mph 994.5mb 49f 48f
6:50am  -   -   -  25 31 mph 995.6mb 49f 48f
5:50am 9ft 6s 5s 27 36 mph 996mb 49f 47f
4:50am 9ft 9s 5s 25 27 mph 997.4mb 49f 46f